sensor_id;sensor_type;location;lat;lon;timestamp;P1;durP1;ratioP1;P2;durP2;ratioP2
6517;SDS011;3292;48.944;9.240;2022-11-13T00:01:09;67.13;;;19.93;;
6517;SDS011;3292;48.944;9.240;2022-11-13T00:03:38;123.23;;;22.27;;
6517;SDS011;3292;48.944;9.240;2022-11-13T00:06:05;131.77;;;24.07;;
6517;SDS011;3292;48.944;9.240;2022-11-13T00:08:32;99.30;;;20.83;;
6517;SDS011;3292;48.944;9.240;2022-11-13T00:11:00;100.77;;;21.60;;
6517;SDS011;3292;48.944;9.240;2022-11-13T00:13:29;34.37;;;16.50;;
6517;SDS011;3292;48.944;9.240;2022-11-13T00:15:57;152.23;;;25.30;;
6517;SDS011;3292;48.944;9.240;2022-11-13T00:18:24;56.17;;;19.10;;
6517;SDS011;3292;48.944;9.240;2022-11-13T00:20:52;108.43;;;23.33;;
6517;SDS011;3292;48.944;9.240;2022-11-13T00:23:19;164.73;;;24.50;;
6517;SDS011;3292;48.944;9.240;2022-11-13T00:25:45;85.77;;;21.67;;
6517;SDS011;3292;48.944;9.240;2022-11-13T00:28:14;96.60;;;21.60;;
6517;SDS011;3292;48.944;9.240;2022-11-13T00:30:41;77.73;;;20.97;;
6517;SDS011;3292;48.944;9.240;2022-11-13T00:33:08;114.67;;;22.80;;
6517;SDS011;3292;48.944;9.240;2022-11-13T00:35:34;81.80;;;19.07;;
6517;SDS011;3292;48.944;9.240;2022-11-13T00:38:02;128.70;;;22.93;;
6517;SDS011;3292;48.944;9.240;2022-11-13T00:40:29;24.83;;;16.13;;
6517;SDS011;3292;48.944;9.240;2022-11-13T00:42:56;66.93;;;19.23;;
6517;SDS011;3292;48.944;9.240;2022-11-13T00:45:24;76.40;;;20.77;;
6517;SDS011;3292;48.944;9.240;2022-11-13T00:47:51;82.03;;;20.50;;
6517;SDS011;3292;48.944;9.240;2022-11-13T00:50:18;160.87;;;23.77;;
6517;SDS011;3292;48.944;9.240;2022-11-13T00:52:44;71.87;;;17.50;;
6517;SDS011;3292;48.944;9.240;2022-11-13T00:55:11;87.07;;;18.73;;
6517;SDS011;3292;48.944;9.240;2022-11-13T00:57:38;35.63;;;18.13;;
6517;SDS011;3292;48.944;9.240;2022-11-13T01:00:05;47.27;;;18.93;;
6517;SDS011;3292;48.944;9.240;2022-11-13T01:02:35;73.93;;;20.50;;
6517;SDS011;3292;48.944;9.240;2022-11-13T01:05:02;56.03;;;19.80;;
6517;SDS011;3292;48.944;9.240;2022-11-13T01:07:29;76.37;;;21.93;;
6517;SDS011;3292;48.944;9.240;2022-11-13T01:09:56;141.17;;;25.00;;
6517;SDS011;3292;48.944;9.240;2022-11-13T01:12:23;137.10;;;22.57;;
6517;SDS011;3292;48.944;9.240;2022-11-13T01:14:50;96.43;;;21.90;;
6517;SDS011;3292;48.944;9.240;2022-11-13T01:17:17;121.90;;;21.23;;
6517;SDS011;3292;48.944;9.240;2022-11-13T01:19:45;94.57;;;20.07;;
6517;SDS011;3292;48.944;9.240;2022-11-13T01:22:12;92.23;;;19.37;;
6517;SDS011;3292;48.944;9.240;2022-11-13T01:24:39;227.90;;;24.77;;
6517;SDS011;3292;48.944;9.240;2022-11-13T01:27:06;142.30;;;22.30;;
6517;SDS011;3292;48.944;9.240;2022-11-13T01:29:33;130.13;;;20.23;;
6517;SDS011;3292;48.944;9.240;2022-11-13T01:32:00;150.43;;;21.60;;
6517;SDS011;3292;48.944;9.240;2022-11-13T01:34:27;15.83;;;14.20;;
6517;SDS011;3292;48.944;9.240;2022-11-13T01:36:55;107.53;;;19.63;;
6517;SDS011;3292;48.944;9.240;2022-11-13T01:39:21;47.73;;;17.63;;
6517;SDS011;3292;48.944;9.240;2022-11-13T01:41:48;154.07;;;21.40;;
6517;SDS011;3292;48.944;9.240;2022-11-13T01:44:16;80.97;;;18.87;;
6517;SDS011;3292;48.944;9.240;2022-11-13T01:46:44;73.50;;;18.73;;
6517;SDS011;3292;48.944;9.240;2022-11-13T01:49:23;63.90;;;18.90;;
6517;SDS011;3292;48.944;9.240;2022-11-13T01:51:53;105.73;;;19.03;;
6517;SDS011;3292;48.944;9.240;2022-11-13T01:54:25;44.57;;;18.20;;
6517;SDS011;3292;48.944;9.240;2022-11-13T01:56:54;146.33;;;21.03;;
6517;SDS011;3292;48.944;9.240;2022-11-13T01:59:23;55.63;;;16.93;;
6517;SDS011;3292;48.944;9.240;2022-11-13T02:01:54;66.40;;;17.43;;
6517;SDS011;3292;48.944;9.240;2022-11-13T02:04:21;18.23;;;14.07;;
6517;SDS011;3292;48.944;9.240;2022-11-13T02:06:50;189.00;;;23.40;;
6517;SDS011;3292;48.944;9.240;2022-11-13T02:09:25;304.63;;;28.67;;
6517;SDS011;3292;48.944;9.240;2022-11-13T02:11:54;168.40;;;22.53;;
6517;SDS011;3292;48.944;9.240;2022-11-13T02:14:22;139.63;;;20.10;;
6517;SDS011;3292;48.944;9.240;2022-11-13T02:16:54;160.80;;;20.87;;
6517;SDS011;3292;48.944;9.240;2022-11-13T02:19:25;37.60;;;14.57;;
6517;SDS011;3292;48.944;9.240;2022-11-13T02:21:57;186.83;;;22.10;;
6517;SDS011;3292;48.944;9.240;2022-11-13T02:24:32;304.47;;;28.03;;
6517;SDS011;3292;48.944;9.240;2022-11-13T02:27:02;84.83;;;18.27;;
6517;SDS011;3292;48.944;9.240;2022-11-13T02:29:33;153.87;;;21.27;;
6517;SDS011;3292;48.944;9.240;2022-11-13T02:32:00;104.23;;;17.60;;
6517;SDS011;3292;48.944;9.240;2022-11-13T02:34:28;36.43;;;14.60;;
6517;SDS011;3292;48.944;9.240;2022-11-13T02:36:55;155.93;;;21.83;;
6517;SDS011;3292;48.944;9.240;2022-11-13T02:39:21;213.00;;;22.83;;
6517;SDS011;3292;48.944;9.240;2022-11-13T02:41:50;40.73;;;13.33;;
6517;SDS011;3292;48.944;9.240;2022-11-13T02:44:17;138.20;;;19.33;;
6517;SDS011;3292;48.944;9.240;2022-11-13T02:46:44;135.53;;;18.03;;
6517;SDS011;3292;48.944;9.240;2022-11-13T02:49:11;50.30;;;15.40;;
6517;SDS011;3292;48.944;9.240;2022-11-13T02:51:39;113.30;;;16.40;;
6517;SDS011;3292;48.944;9.240;2022-11-13T02:54:06;206.73;;;21.17;;
6517;SDS011;3292;48.944;9.240;2022-11-13T02:56:33;55.90;;;13.30;;
6517;SDS011;3292;48.944;9.240;2022-11-13T02:59:04;138.47;;;16.90;;
6517;SDS011;3292;48.944;9.240;2022-11-13T03:01:31;147.97;;;18.27;;
6517;SDS011;3292;48.944;9.240;2022-11-13T03:03:59;291.47;;;24.73;;
6517;SDS011;3292;48.944;9.240;2022-11-13T03:06:26;159.90;;;18.43;;
6517;SDS011;3292;48.944;9.240;2022-11-13T03:08:52;167.17;;;17.17;;
6517;SDS011;3292;48.944;9.240;2022-11-13T03:11:19;88.37;;;14.53;;
6517;SDS011;3292;48.944;9.240;2022-11-13T03:13:46;109.43;;;15.10;;
6517;SDS011;3292;48.944;9.240;2022-11-13T03:16:15;268.33;;;22.77;;
6517;SDS011;3292;48.944;9.240;2022-11-13T03:18:42;51.40;;;11.90;;
6517;SDS011;3292;48.944;9.240;2022-11-13T03:21:10;151.23;;;16.50;;
6517;SDS011;3292;48.944;9.240;2022-11-13T03:23:39;52.73;;;11.47;;
6517;SDS011;3292;48.944;9.240;2022-11-13T03:26:10;99.57;;;15.20;;
6517;SDS011;3292;48.944;9.240;2022-11-13T03:28:38;135.77;;;16.57;;
6517;SDS011;3292;48.944;9.240;2022-11-13T03:31:05;101.73;;;14.47;;
6517;SDS011;3292;48.944;9.240;2022-11-13T03:33:33;122.07;;;15.17;;
6517;SDS011;3292;48.944;9.240;2022-11-13T03:36:00;94.60;;;13.50;;
6517;SDS011;3292;48.944;9.240;2022-11-13T03:38:27;128.20;;;14.03;;
6517;SDS011;3292;48.944;9.240;2022-11-13T03:40:54;255.07;;;21.77;;
6517;SDS011;3292;48.944;9.240;2022-11-13T03:43:21;103.83;;;14.33;;
6517;SDS011;3292;48.944;9.240;2022-11-13T03:45:48;51.77;;;11.37;;
6517;SDS011;3292;48.944;9.240;2022-11-13T03:48:15;11.00;;;9.20;;
6517;SDS011;3292;48.944;9.240;2022-11-13T03:50:44;55.97;;;10.97;;
6517;SDS011;3292;48.944;9.240;2022-11-13T03:53:12;187.97;;;17.77;;
6517;SDS011;3292;48.944;9.240;2022-11-13T03:55:40;223.03;;;19.37;;
6517;SDS011;3292;48.944;9.240;2022-11-13T03:58:09;183.63;;;17.90;;
6517;SDS011;3292;48.944;9.240;2022-11-13T04:00:36;259.10;;;20.00;;
6517;SDS011;3292;48.944;9.240;2022-11-13T04:03:04;24.20;;;9.57;;
6517;SDS011;3292;48.944;9.240;2022-11-13T04:05:31;159.47;;;16.80;;
6517;SDS011;3292;48.944;9.240;2022-11-13T04:07:59;320.87;;;23.63;;
6517;SDS011;3292;48.944;9.240;2022-11-13T04:10:26;104.13;;;13.70;;
6517;SDS011;3292;48.944;9.240;2022-11-13T04:12:53;18.93;;;8.83;;
6517;SDS011;3292;48.944;9.240;2022-11-13T04:15:20;83.03;;;12.77;;
6517;SDS011;3292;48.944;9.240;2022-11-13T04:17:48;145.50;;;15.33;;
6517;SDS011;3292;48.944;9.240;2022-11-13T04:20:15;98.77;;;12.60;;
6517;SDS011;3292;48.944;9.240;2022-11-13T04:22:42;182.93;;;17.73;;
6517;SDS011;3292;48.944;9.240;2022-11-13T04:25:11;51.07;;;10.37;;
6517;SDS011;3292;48.944;9.240;2022-11-13T04:27:37;196.90;;;18.23;;
6517;SDS011;3292;48.944;9.240;2022-11-13T04:30:05;337.30;;;23.43;;
6517;SDS011;3292;48.944;9.240;2022-11-13T04:32:33;234.87;;;19.87;;
6517;SDS011;3292;48.944;9.240;2022-11-13T04:35:00;48.17;;;10.53;;
6517;SDS011;3292;48.944;9.240;2022-11-13T04:37:27;107.17;;;14.47;;
6517;SDS011;3292;48.944;9.240;2022-11-13T04:39:54;201.90;;;17.97;;
6517;SDS011;3292;48.944;9.240;2022-11-13T04:42:23;353.27;;;25.80;;
6517;SDS011;3292;48.944;9.240;2022-11-13T04:45:07;293.67;;;22.87;;
6517;SDS011;3292;48.944;9.240;2022-11-13T04:47:38;150.03;;;17.87;;
6517;SDS011;3292;48.944;9.240;2022-11-13T04:50:06;126.87;;;15.33;;
6517;SDS011;3292;48.944;9.240;2022-11-13T04:52:33;76.53;;;13.33;;
6517;SDS011;3292;48.944;9.240;2022-11-13T04:55:01;227.00;;;21.30;;
6517;SDS011;3292;48.944;9.240;2022-11-13T04:57:29;227.70;;;20.97;;
6517;SDS011;3292;48.944;9.240;2022-11-13T04:59:57;32.43;;;11.47;;
6517;SDS011;3292;48.944;9.240;2022-11-13T05:02:24;58.77;;;12.67;;
6517;SDS011;3292;48.944;9.240;2022-11-13T05:04:50;136.43;;;18.33;;
6517;SDS011;3292;48.944;9.240;2022-11-13T05:07:17;189.77;;;19.10;;
6517;SDS011;3292;48.944;9.240;2022-11-13T05:09:44;345.07;;;27.20;;
6517;SDS011;3292;48.944;9.240;2022-11-13T05:12:11;21.07;;;10.57;;
6517;SDS011;3292;48.944;9.240;2022-11-13T05:14:39;37.93;;;11.10;;
6517;SDS011;3292;48.944;9.240;2022-11-13T05:17:10;160.60;;;16.77;;
6517;SDS011;3292;48.944;9.240;2022-11-13T05:19:41;336.40;;;26.10;;
6517;SDS011;3292;48.944;9.240;2022-11-13T05:22:08;15.80;;;9.87;;
6517;SDS011;3292;48.944;9.240;2022-11-13T05:24:35;90.83;;;14.53;;
6517;SDS011;3292;48.944;9.240;2022-11-13T05:27:02;163.17;;;19.00;;
6517;SDS011;3292;48.944;9.240;2022-11-13T05:29:30;41.57;;;13.13;;
6517;SDS011;3292;48.944;9.240;2022-11-13T05:31:58;562.57;;;39.57;;
6517;SDS011;3292;48.944;9.240;2022-11-13T05:34:25;216.10;;;20.70;;
6517;SDS011;3292;48.944;9.240;2022-11-13T05:36:51;208.40;;;20.27;;
6517;SDS011;3292;48.944;9.240;2022-11-13T05:39:18;69.07;;;14.20;;
6517;SDS011;3292;48.944;9.240;2022-11-13T05:41:45;82.03;;;14.47;;
6517;SDS011;3292;48.944;9.240;2022-11-13T05:44:12;116.63;;;15.60;;
6517;SDS011;3292;48.944;9.240;2022-11-13T05:46:40;28.03;;;10.60;;
6517;SDS011;3292;48.944;9.240;2022-11-13T05:49:08;43.90;;;11.63;;
6517;SDS011;3292;48.944;9.240;2022-11-13T05:51:38;33.80;;;11.30;;
6517;SDS011;3292;48.944;9.240;2022-11-13T05:54:04;27.87;;;11.57;;
6517;SDS011;3292;48.944;9.240;2022-11-13T05:56:32;34.27;;;12.30;;
6517;SDS011;3292;48.944;9.240;2022-11-13T05:59:00;47.47;;;12.13;;
6517;SDS011;3292;48.944;9.240;2022-11-13T06:01:29;98.60;;;15.23;;
6517;SDS011;3292;48.944;9.240;2022-11-13T06:03:57;30.27;;;11.23;;
6517;SDS011;3292;48.944;9.240;2022-11-13T06:06:28;42.10;;;12.50;;
6517;SDS011;3292;48.944;9.240;2022-11-13T06:08:56;16.10;;;9.30;;
6517;SDS011;3292;48.944;9.240;2022-11-13T06:11:25;48.07;;;13.13;;
6517;SDS011;3292;48.944;9.240;2022-11-13T06:13:53;47.60;;;11.87;;
6517;SDS011;3292;48.944;9.240;2022-11-13T06:16:22;52.67;;;12.23;;
6517;SDS011;3292;48.944;9.240;2022-11-13T06:18:53;75.33;;;13.50;;
6517;SDS011;3292;48.944;9.240;2022-11-13T06:21:21;218.63;;;19.40;;
6517;SDS011;3292;48.944;9.240;2022-11-13T06:23:51;303.73;;;23.67;;
6517;SDS011;3292;48.944;9.240;2022-11-13T06:26:26;140.33;;;15.80;;
6517;SDS011;3292;48.944;9.240;2022-11-13T06:28:55;107.13;;;14.37;;
6517;SDS011;3292;48.944;9.240;2022-11-13T06:31:27;42.23;;;11.60;;
6517;SDS011;3292;48.944;9.240;2022-11-13T06:33:56;74.60;;;14.77;;
6517;SDS011;3292;48.944;9.240;2022-11-13T06:36:24;123.00;;;16.40;;
6517;SDS011;3292;48.944;9.240;2022-11-13T06:38:55;79.90;;;13.97;;
6517;SDS011;3292;48.944;9.240;2022-11-13T06:41:22;72.17;;;13.13;;
6517;SDS011;3292;48.944;9.240;2022-11-13T06:43:53;63.67;;;13.83;;
6517;SDS011;3292;48.944;9.240;2022-11-13T06:46:22;136.73;;;17.93;;
6517;SDS011;3292;48.944;9.240;2022-11-13T06:48:51;114.73;;;15.53;;
6517;SDS011;3292;48.944;9.240;2022-11-13T06:51:20;91.33;;;14.50;;
6517;SDS011;3292;48.944;9.240;2022-11-13T06:53:48;25.17;;;11.17;;
6517;SDS011;3292;48.944;9.240;2022-11-13T06:56:18;33.03;;;11.43;;
6517;SDS011;3292;48.944;9.240;2022-11-13T06:58:46;38.73;;;11.30;;
6517;SDS011;3292;48.944;9.240;2022-11-13T07:01:14;32.20;;;11.23;;
6517;SDS011;3292;48.944;9.240;2022-11-13T07:03:46;134.23;;;16.43;;
6517;SDS011;3292;48.944;9.240;2022-11-13T07:06:14;184.47;;;19.97;;
6517;SDS011;3292;48.944;9.240;2022-11-13T07:08:43;184.20;;;20.17;;
6517;SDS011;3292;48.944;9.240;2022-11-13T07:11:25;100.17;;;15.53;;
6517;SDS011;3292;48.944;9.240;2022-11-13T07:13:53;30.10;;;10.90;;
6517;SDS011;3292;48.944;9.240;2022-11-13T07:16:21;72.30;;;14.27;;
6517;SDS011;3292;48.944;9.240;2022-11-13T07:19:09;126.77;;;15.10;;
6517;SDS011;3292;48.944;9.240;2022-11-13T07:21:38;104.43;;;14.70;;
6517;SDS011;3292;48.944;9.240;2022-11-13T07:24:06;115.13;;;14.83;;
6517;SDS011;3292;48.944;9.240;2022-11-13T07:26:35;97.57;;;14.17;;
6517;SDS011;3292;48.944;9.240;2022-11-13T07:29:02;23.23;;;10.40;;
6517;SDS011;3292;48.944;9.240;2022-11-13T07:31:29;38.33;;;13.07;;
6517;SDS011;3292;48.944;9.240;2022-11-13T07:33:58;33.07;;;12.07;;
6517;SDS011;3292;48.944;9.240;2022-11-13T07:36:25;65.93;;;14.57;;
6517;SDS011;3292;48.944;9.240;2022-11-13T07:38:56;106.00;;;16.80;;
6517;SDS011;3292;48.944;9.240;2022-11-13T07:41:30;110.10;;;14.47;;
6517;SDS011;3292;48.944;9.240;2022-11-13T07:43:59;125.13;;;23.93;;
6517;SDS011;3292;48.944;9.240;2022-11-13T07:46:30;84.50;;;26.80;;
6517;SDS011;3292;48.944;9.240;2022-11-13T07:48:59;76.83;;;16.40;;
6517;SDS011;3292;48.944;9.240;2022-11-13T07:51:26;276.97;;;22.83;;
6517;SDS011;3292;48.944;9.240;2022-11-13T07:53:56;227.77;;;22.07;;
6517;SDS011;3292;48.944;9.240;2022-11-13T07:56:23;59.03;;;12.40;;
6517;SDS011;3292;48.944;9.240;2022-11-13T07:58:49;58.53;;;12.67;;
6517;SDS011;3292;48.944;9.240;2022-11-13T08:01:18;81.93;;;13.30;;
6517;SDS011;3292;48.944;9.240;2022-11-13T08:03:45;34.80;;;12.47;;
6517;SDS011;3292;48.944;9.240;2022-11-13T08:06:14;69.07;;;13.23;;
6517;SDS011;3292;48.944;9.240;2022-11-13T08:08:42;332.70;;;28.13;;
6517;SDS011;3292;48.944;9.240;2022-11-13T08:11:09;72.60;;;12.77;;
6517;SDS011;3292;48.944;9.240;2022-11-13T08:13:36;74.57;;;12.87;;
6517;SDS011;3292;48.944;9.240;2022-11-13T08:16:03;54.33;;;15.20;;
6517;SDS011;3292;48.944;9.240;2022-11-13T08:18:32;70.07;;;13.37;;
6517;SDS011;3292;48.944;9.240;2022-11-13T08:21:00;96.43;;;14.50;;
6517;SDS011;3292;48.944;9.240;2022-11-13T08:23:29;96.37;;;14.47;;
6517;SDS011;3292;48.944;9.240;2022-11-13T08:26:04;278.80;;;21.70;;
6517;SDS011;3292;48.944;9.240;2022-11-13T08:28:32;170.93;;;17.17;;
6517;SDS011;3292;48.944;9.240;2022-11-13T08:31:03;77.07;;;13.67;;
6517;SDS011;3292;48.944;9.240;2022-11-13T08:33:48;227.30;;;19.90;;
6517;SDS011;3292;48.944;9.240;2022-11-13T08:36:16;298.63;;;22.77;;
6517;SDS011;3292;48.944;9.240;2022-11-13T08:38:47;233.77;;;23.67;;
6517;SDS011;3292;48.944;9.240;2022-11-13T08:41:14;76.30;;;14.73;;
6517;SDS011;3292;48.944;9.240;2022-11-13T08:43:41;260.90;;;24.33;;
6517;SDS011;3292;48.944;9.240;2022-11-13T08:46:08;115.33;;;17.73;;
6517;SDS011;3292;48.944;9.240;2022-11-13T08:48:36;36.67;;;11.53;;
6517;SDS011;3292;48.944;9.240;2022-11-13T08:51:07;17.90;;;10.87;;
6517;SDS011;3292;48.944;9.240;2022-11-13T08:53:36;42.53;;;12.97;;
6517;SDS011;3292;48.944;9.240;2022-11-13T08:56:04;80.17;;;14.50;;
6517;SDS011;3292;48.944;9.240;2022-11-13T08:58:32;21.47;;;11.20;;
6517;SDS011;3292;48.944;9.240;2022-11-13T09:01:00;27.80;;;12.23;;
6517;SDS011;3292;48.944;9.240;2022-11-13T09:03:27;117.40;;;17.50;;
6517;SDS011;3292;48.944;9.240;2022-11-13T09:05:56;78.33;;;14.53;;
6517;SDS011;3292;48.944;9.240;2022-11-13T09:11:03;23.23;;;13.07;;
6517;SDS011;3292;48.944;9.240;2022-11-13T09:13:30;96.23;;;17.90;;
6517;SDS011;3292;48.944;9.240;2022-11-13T09:15:57;105.70;;;18.00;;
6517;SDS011;3292;48.944;9.240;2022-11-13T09:18:25;104.97;;;17.27;;
6517;SDS011;3292;48.944;9.240;2022-11-13T09:20:54;54.43;;;14.27;;
6517;SDS011;3292;48.944;9.240;2022-11-13T09:23:25;37.23;;;14.63;;
6517;SDS011;3292;48.944;9.240;2022-11-13T09:26:01;26.57;;;15.23;;
6517;SDS011;3292;48.944;9.240;2022-11-13T09:28:28;17.93;;;14.67;;
6517;SDS011;3292;48.944;9.240;2022-11-13T09:30:56;18.70;;;15.23;;
6517;SDS011;3292;48.944;9.240;2022-11-13T09:33:26;34.27;;;14.80;;
6517;SDS011;3292;48.944;9.240;2022-11-13T09:35:53;15.37;;;13.77;;
6517;SDS011;3292;48.944;9.240;2022-11-13T09:38:20;78.00;;;16.43;;
6517;SDS011;3292;48.944;9.240;2022-11-13T09:40:51;22.80;;;13.73;;
6517;SDS011;3292;48.944;9.240;2022-11-13T09:43:29;39.80;;;15.23;;
6517;SDS011;3292;48.944;9.240;2022-11-13T09:46:02;78.87;;;17.10;;
6517;SDS011;3292;48.944;9.240;2022-11-13T09:48:46;47.43;;;15.90;;
6517;SDS011;3292;48.944;9.240;2022-11-13T09:51:20;24.63;;;14.73;;
6517;SDS011;3292;48.944;9.240;2022-11-13T09:53:52;57.23;;;17.30;;
6517;SDS011;3292;48.944;9.240;2022-11-13T09:56:26;22.10;;;14.70;;
6517;SDS011;3292;48.944;9.240;2022-11-13T09:59:12;18.13;;;14.30;;
6517;SDS011;3292;48.944;9.240;2022-11-13T10:02:01;16.20;;;14.50;;
6517;SDS011;3292;48.944;9.240;2022-11-13T10:04:40;16.17;;;14.57;;
6517;SDS011;3292;48.944;9.240;2022-11-13T10:07:19;21.77;;;14.20;;
6517;SDS011;3292;48.944;9.240;2022-11-13T10:13:16;15.77;;;13.90;;
6517;SDS011;3292;48.944;9.240;2022-11-13T10:15:56;17.10;;;15.07;;
6517;SDS011;3292;48.944;9.240;2022-11-13T10:18:33;15.37;;;13.87;;
6517;SDS011;3292;48.944;9.240;2022-11-13T10:21:07;16.27;;;14.57;;
6517;SDS011;3292;48.944;9.240;2022-11-13T10:23:38;15.73;;;14.13;;
6517;SDS011;3292;48.944;9.240;2022-11-13T10:26:10;14.23;;;12.93;;
6517;SDS011;3292;48.944;9.240;2022-11-13T10:28:41;15.00;;;13.50;;
6517;SDS011;3292;48.944;9.240;2022-11-13T10:31:10;16.00;;;14.30;;
6517;SDS011;3292;48.944;9.240;2022-11-13T10:33:39;17.17;;;15.37;;
6517;SDS011;3292;48.944;9.240;2022-11-13T10:36:10;16.30;;;14.60;;
6517;SDS011;3292;48.944;9.240;2022-11-13T10:38:49;14.93;;;13.43;;
6517;SDS011;3292;48.944;9.240;2022-11-13T10:41:44;15.83;;;14.10;;
6517;SDS011;3292;48.944;9.240;2022-11-13T10:44:25;14.63;;;13.17;;
6517;SDS011;3292;48.944;9.240;2022-11-13T10:47:08;16.57;;;14.87;;
6517;SDS011;3292;48.944;9.240;2022-11-13T10:49:40;14.60;;;13.20;;
6517;SDS011;3292;48.944;9.240;2022-11-13T10:52:15;13.10;;;11.73;;
6517;SDS011;3292;48.944;9.240;2022-11-13T10:54:47;11.60;;;10.40;;
6517;SDS011;3292;48.944;9.240;2022-11-13T10:57:20;11.40;;;10.23;;
6517;SDS011;3292;48.944;9.240;2022-11-13T10:59:51;11.87;;;10.77;;
6517;SDS011;3292;48.944;9.240;2022-11-13T11:02:25;10.57;;;9.67;;
6517;SDS011;3292;48.944;9.240;2022-11-13T11:05:03;11.57;;;10.57;;
6517;SDS011;3292;48.944;9.240;2022-11-13T11:07:33;11.50;;;10.40;;
6517;SDS011;3292;48.944;9.240;2022-11-13T11:10:18;12.27;;;10.97;;
6517;SDS011;3292;48.944;9.240;2022-11-13T11:12:50;11.03;;;10.03;;
6517;SDS011;3292;48.944;9.240;2022-11-13T11:15:20;11.57;;;10.57;;
6517;SDS011;3292;48.944;9.240;2022-11-13T11:17:53;11.10;;;10.20;;
6517;SDS011;3292;48.944;9.240;2022-11-13T11:20:31;11.53;;;10.53;;
6517;SDS011;3292;48.944;9.240;2022-11-13T11:25:58;10.23;;;9.33;;
6517;SDS011;3292;48.944;9.240;2022-11-13T11:28:30;10.30;;;9.40;;
6517;SDS011;3292;48.944;9.240;2022-11-13T11:31:04;11.00;;;9.90;;
6517;SDS011;3292;48.944;9.240;2022-11-13T11:33:41;10.17;;;9.17;;
6517;SDS011;3292;48.944;9.240;2022-11-13T11:36:19;10.93;;;10.03;;
6517;SDS011;3292;48.944;9.240;2022-11-13T11:38:55;10.80;;;9.80;;
6517;SDS011;3292;48.944;9.240;2022-11-13T11:41:31;10.43;;;9.53;;
6517;SDS011;3292;48.944;9.240;2022-11-13T11:44:04;10.27;;;9.37;;
6517;SDS011;3292;48.944;9.240;2022-11-13T11:46:41;11.17;;;10.27;;
6517;SDS011;3292;48.944;9.240;2022-11-13T11:49:10;10.27;;;9.37;;
6517;SDS011;3292;48.944;9.240;2022-11-13T11:51:40;10.57;;;9.67;;
6517;SDS011;3292;48.944;9.240;2022-11-13T11:54:32;11.10;;;10.10;;
6517;SDS011;3292;48.944;9.240;2022-11-13T11:57:11;10.53;;;9.53;;
6517;SDS011;3292;48.944;9.240;2022-11-13T12:00:02;10.17;;;9.33;;
6517;SDS011;3292;48.944;9.240;2022-11-13T12:05:26;10.67;;;9.77;;
6517;SDS011;3292;48.944;9.240;2022-11-13T12:08:06;11.70;;;10.60;;
6517;SDS011;3292;48.944;9.240;2022-11-13T12:10:44;11.17;;;10.17;;
6517;SDS011;3292;48.944;9.240;2022-11-13T12:16:05;11.20;;;10.10;;
6517;SDS011;3292;48.944;9.240;2022-11-13T12:18:43;10.57;;;9.43;;
6517;SDS011;3292;48.944;9.240;2022-11-13T12:21:29;11.63;;;10.63;;
6517;SDS011;3292;48.944;9.240;2022-11-13T12:24:11;10.50;;;9.70;;
6517;SDS011;3292;48.944;9.240;2022-11-13T12:26:49;11.60;;;10.60;;
6517;SDS011;3292;48.944;9.240;2022-11-13T12:29:37;10.70;;;9.70;;
6517;SDS011;3292;48.944;9.240;2022-11-13T12:35:14;11.17;;;10.17;;
6517;SDS011;3292;48.944;9.240;2022-11-13T12:37:51;11.00;;;10.00;;
6517;SDS011;3292;48.944;9.240;2022-11-13T12:40:33;11.17;;;10.17;;
6517;SDS011;3292;48.944;9.240;2022-11-13T12:43:06;11.10;;;10.10;;
6517;SDS011;3292;48.944;9.240;2022-11-13T12:45:52;10.77;;;9.87;;
6517;SDS011;3292;48.944;9.240;2022-11-13T12:48:24;11.03;;;9.93;;
6517;SDS011;3292;48.944;9.240;2022-11-13T12:50:59;12.17;;;10.97;;
6517;SDS011;3292;48.944;9.240;2022-11-13T12:53:41;11.20;;;10.10;;
6517;SDS011;3292;48.944;9.240;2022-11-13T12:56:14;10.87;;;9.87;;
6517;SDS011;3292;48.944;9.240;2022-11-13T12:59:01;11.23;;;9.80;;
6517;SDS011;3292;48.944;9.240;2022-11-13T13:01:54;10.73;;;9.73;;
6517;SDS011;3292;48.944;9.240;2022-11-13T13:04:36;10.47;;;9.57;;
6517;SDS011;3292;48.944;9.240;2022-11-13T13:07:17;9.60;;;8.70;;
6517;SDS011;3292;48.944;9.240;2022-11-13T13:10:08;9.37;;;8.13;;
6517;SDS011;3292;48.944;9.240;2022-11-13T13:12:48;8.20;;;7.50;;
6517;SDS011;3292;48.944;9.240;2022-11-13T13:15:27;8.93;;;7.80;;
6517;SDS011;3292;48.944;9.240;2022-11-13T13:18:04;8.70;;;7.90;;
6517;SDS011;3292;48.944;9.240;2022-11-13T13:21:10;7.93;;;7.23;;
6517;SDS011;3292;48.944;9.240;2022-11-13T13:23:41;9.50;;;8.40;;
6517;SDS011;3292;48.944;9.240;2022-11-13T13:26:15;8.60;;;7.80;;
6517;SDS011;3292;48.944;9.240;2022-11-13T13:28:50;8.50;;;7.70;;
6517;SDS011;3292;48.944;9.240;2022-11-13T13:31:30;8.23;;;7.50;;
6517;SDS011;3292;48.944;9.240;2022-11-13T13:37:21;8.60;;;7.80;;
6517;SDS011;3292;48.944;9.240;2022-11-13T13:40:01;7.60;;;7.00;;
6517;SDS011;3292;48.944;9.240;2022-11-13T13:43:22;7.97;;;7.23;;
6517;SDS011;3292;48.944;9.240;2022-11-13T13:46:00;8.20;;;7.40;;
6517;SDS011;3292;48.944;9.240;2022-11-13T13:48:41;7.57;;;6.87;;
6517;SDS011;3292;48.944;9.240;2022-11-13T13:51:35;8.20;;;7.40;;
6517;SDS011;3292;48.944;9.240;2022-11-13T13:54:08;7.60;;;6.90;;
6517;SDS011;3292;48.944;9.240;2022-11-13T13:56:47;7.73;;;6.97;;
6517;SDS011;3292;48.944;9.240;2022-11-13T13:59:28;7.03;;;6.43;;
6517;SDS011;3292;48.944;9.240;2022-11-13T14:02:03;7.33;;;6.43;;
6517;SDS011;3292;48.944;9.240;2022-11-13T14:04:42;7.00;;;6.30;;
6517;SDS011;3292;48.944;9.240;2022-11-13T14:07:29;7.63;;;6.93;;
6517;SDS011;3292;48.944;9.240;2022-11-13T14:10:15;7.40;;;6.70;;
6517;SDS011;3292;48.944;9.240;2022-11-13T14:12:53;7.60;;;6.87;;
6517;SDS011;3292;48.944;9.240;2022-11-13T14:15:24;7.70;;;7.00;;
6517;SDS011;3292;48.944;9.240;2022-11-13T14:18:03;8.40;;;7.50;;
6517;SDS011;3292;48.944;9.240;2022-11-13T14:20:37;8.07;;;7.27;;
6517;SDS011;3292;48.944;9.240;2022-11-13T14:23:13;8.43;;;7.60;;
6517;SDS011;3292;48.944;9.240;2022-11-13T14:25:48;7.93;;;7.20;;
6517;SDS011;3292;48.944;9.240;2022-11-13T14:28:19;7.60;;;6.87;;
6517;SDS011;3292;48.944;9.240;2022-11-13T14:30:54;9.20;;;7.43;;
6517;SDS011;3292;48.944;9.240;2022-11-13T14:33:30;7.80;;;7.10;;
6517;SDS011;3292;48.944;9.240;2022-11-13T14:35:59;7.90;;;7.20;;
6517;SDS011;3292;48.944;9.240;2022-11-13T14:38:27;8.27;;;7.47;;
6517;SDS011;3292;48.944;9.240;2022-11-13T14:40:58;8.33;;;7.63;;
6517;SDS011;3292;48.944;9.240;2022-11-13T14:43:28;7.73;;;7.03;;
6517;SDS011;3292;48.944;9.240;2022-11-13T14:46:00;8.40;;;7.53;;
6517;SDS011;3292;48.944;9.240;2022-11-13T14:48:29;8.13;;;7.43;;
6517;SDS011;3292;48.944;9.240;2022-11-13T14:50:57;7.97;;;7.33;;
6517;SDS011;3292;48.944;9.240;2022-11-13T14:53:27;8.93;;;8.13;;
6517;SDS011;3292;48.944;9.240;2022-11-13T14:55:56;8.73;;;7.83;;
6517;SDS011;3292;48.944;9.240;2022-11-13T14:58:27;8.87;;;7.97;;
6517;SDS011;3292;48.944;9.240;2022-11-13T15:00:55;10.43;;;9.43;;
6517;SDS011;3292;48.944;9.240;2022-11-13T15:03:24;8.60;;;7.83;;
6517;SDS011;3292;48.944;9.240;2022-11-13T15:05:51;8.83;;;8.03;;
6517;SDS011;3292;48.944;9.240;2022-11-13T15:08:18;9.00;;;8.20;;
6517;SDS011;3292;48.944;9.240;2022-11-13T15:10:45;8.67;;;7.87;;
6517;SDS011;3292;48.944;9.240;2022-11-13T15:13:13;8.67;;;7.83;;
6517;SDS011;3292;48.944;9.240;2022-11-13T15:15:41;8.23;;;7.43;;
6517;SDS011;3292;48.944;9.240;2022-11-13T15:18:11;8.70;;;7.90;;
6517;SDS011;3292;48.944;9.240;2022-11-13T15:20:41;9.93;;;9.02;;
6517;SDS011;3292;48.944;9.240;2022-11-13T15:23:10;11.63;;;10.43;;
6517;SDS011;3292;48.944;9.240;2022-11-13T15:25:39;11.33;;;10.13;;
6517;SDS011;3292;48.944;9.240;2022-11-13T15:28:06;14.10;;;12.60;;
6517;SDS011;3292;48.944;9.240;2022-11-13T15:30:33;11.90;;;10.73;;
6517;SDS011;3292;48.944;9.240;2022-11-13T15:33:00;9.90;;;8.93;;